sensor_id;sensor_type;location;lat;lon;timestamp;P1;durP1;ratioP1;P2;durP2;ratioP2
7875;SDS011;69649;53.712;9.680;2023-08-21T00:00:08;8.90;;;5.50;;
7875;SDS011;69649;53.712;9.680;2023-08-21T00:02:35;8.73;;;5.80;;
7875;SDS011;69649;53.712;9.680;2023-08-21T00:05:01;6.07;;;4.60;;
7875;SDS011;69649;53.712;9.680;2023-08-21T00:07:26;9.03;;;5.23;;
7875;SDS011;69649;53.712;9.680;2023-08-21T00:09:52;6.47;;;4.77;;
7875;SDS011;69649;53.712;9.680;2023-08-21T00:12:18;11.33;;;5.30;;
7875;SDS011;69649;53.712;9.680;2023-08-21T00:14:44;8.27;;;5.40;;
7875;SDS011;69649;53.712;9.680;2023-08-21T00:17:09;9.13;;;5.30;;
7875;SDS011;69649;53.712;9.680;2023-08-21T00:19:35;7.80;;;4.93;;
7875;SDS011;69649;53.712;9.680;2023-08-21T00:22:01;8.83;;;5.57;;
7875;SDS011;69649;53.712;9.680;2023-08-21T00:24:27;7.93;;;5.20;;
7875;SDS011;69649;53.712;9.680;2023-08-21T00:26:52;9.53;;;4.87;;
7875;SDS011;69649;53.712;9.680;2023-08-21T00:29:18;10.27;;;6.17;;
7875;SDS011;69649;53.712;9.680;2023-08-21T00:31:44;9.87;;;5.93;;
7875;SDS011;69649;53.712;9.680;2023-08-21T00:34:10;10.80;;;7.23;;
7875;SDS011;69649;53.712;9.680;2023-08-21T00:36:35;10.00;;;5.40;;
7875;SDS011;69649;53.712;9.680;2023-08-21T00:39:01;7.57;;;5.53;;
7875;SDS011;69649;53.712;9.680;2023-08-21T00:41:27;8.63;;;6.00;;
7875;SDS011;69649;53.712;9.680;2023-08-21T00:43:53;10.00;;;5.03;;
7875;SDS011;69649;53.712;9.680;2023-08-21T00:46:18;9.40;;;6.47;;
7875;SDS011;69649;53.712;9.680;2023-08-21T00:48:44;6.47;;;5.40;;
7875;SDS011;69649;53.712;9.680;2023-08-21T00:51:10;9.60;;;6.73;;
7875;SDS011;69649;53.712;9.680;2023-08-21T00:53:39;11.73;;;5.70;;
7875;SDS011;69649;53.712;9.680;2023-08-21T00:56:05;9.37;;;6.10;;
7875;SDS011;69649;53.712;9.680;2023-08-21T00:58:31;6.53;;;5.30;;
7875;SDS011;69649;53.712;9.680;2023-08-21T01:00:57;7.03;;;5.87;;
7875;SDS011;69649;53.712;9.680;2023-08-21T01:03:23;8.80;;;5.73;;
7875;SDS011;69649;53.712;9.680;2023-08-21T01:05:49;8.23;;;6.30;;
7875;SDS011;69649;53.712;9.680;2023-08-21T01:08:30;9.47;;;5.73;;
7875;SDS011;69649;53.712;9.680;2023-08-21T01:16:24;7.10;;;5.17;;
7875;SDS011;69649;53.712;9.680;2023-08-21T01:18:51;7.20;;;5.80;;
7875;SDS011;69649;53.712;9.680;2023-08-21T01:21:19;11.03;;;5.80;;
7875;SDS011;69649;53.712;9.680;2023-08-21T01:23:45;5.57;;;4.70;;
7875;SDS011;69649;53.712;9.680;2023-08-21T01:26:11;6.37;;;5.77;;
7875;SDS011;69649;53.712;9.680;2023-08-21T01:28:37;7.47;;;5.30;;
7875;SDS011;69649;53.712;9.680;2023-08-21T01:33:43;7.67;;;4.27;;
7875;SDS011;69649;53.712;9.680;2023-08-21T01:36:14;5.97;;;5.37;;
7875;SDS011;69649;53.712;9.680;2023-08-21T01:38:40;7.17;;;4.30;;
7875;SDS011;69649;53.712;9.680;2023-08-21T01:41:06;8.50;;;5.43;;
7875;SDS011;69649;53.712;9.680;2023-08-21T01:43:32;5.60;;;4.67;;
7875;SDS011;69649;53.712;9.680;2023-08-21T01:45:59;5.30;;;4.80;;
7875;SDS011;69649;53.712;9.680;2023-08-21T01:48:26;8.57;;;6.13;;
7875;SDS011;69649;53.712;9.680;2023-08-21T01:50:52;9.07;;;5.87;;
7875;SDS011;69649;53.712;9.680;2023-08-21T01:53:18;15.07;;;7.73;;
7875;SDS011;69649;53.712;9.680;2023-08-21T01:55:43;8.83;;;5.67;;
7875;SDS011;69649;53.712;9.680;2023-08-21T01:58:09;9.20;;;6.30;;
7875;SDS011;69649;53.712;9.680;2023-08-21T02:00:35;11.87;;;6.57;;
7875;SDS011;69649;53.712;9.680;2023-08-21T02:03:01;8.47;;;6.03;;
7875;SDS011;69649;53.712;9.680;2023-08-21T02:05:27;8.93;;;6.83;;
7875;SDS011;69649;53.712;9.680;2023-08-21T02:07:52;12.73;;;6.97;;
7875;SDS011;69649;53.712;9.680;2023-08-21T02:10:18;11.50;;;6.97;;
7875;SDS011;69649;53.712;9.680;2023-08-21T02:12:44;9.77;;;7.40;;
7875;SDS011;69649;53.712;9.680;2023-08-21T02:15:10;10.40;;;7.10;;
7875;SDS011;69649;53.712;9.680;2023-08-21T02:17:35;11.70;;;7.73;;
7875;SDS011;69649;53.712;9.680;2023-08-21T02:20:01;10.93;;;7.87;;
7875;SDS011;69649;53.712;9.680;2023-08-21T02:22:27;11.47;;;8.53;;
7875;SDS011;69649;53.712;9.680;2023-08-21T02:24:53;10.47;;;8.43;;
7875;SDS011;69649;53.712;9.680;2023-08-21T02:27:19;10.23;;;9.30;;
7875;SDS011;69649;53.712;9.680;2023-08-21T02:29:45;10.37;;;7.87;;
7875;SDS011;69649;53.712;9.680;2023-08-21T02:32:10;8.83;;;7.23;;
7875;SDS011;69649;53.712;9.680;2023-08-21T02:34:36;13.33;;;8.47;;
7875;SDS011;69649;53.712;9.680;2023-08-21T02:37:02;9.60;;;8.13;;
7875;SDS011;69649;53.712;9.680;2023-08-21T02:39:28;13.37;;;9.07;;
7875;SDS011;69649;53.712;9.680;2023-08-21T02:41:54;11.13;;;7.93;;
7875;SDS011;69649;53.712;9.680;2023-08-21T02:44:20;9.90;;;8.13;;
7875;SDS011;69649;53.712;9.680;2023-08-21T02:46:45;9.73;;;7.63;;
7875;SDS011;69649;53.712;9.680;2023-08-21T02:49:11;17.37;;;9.77;;
7875;SDS011;69649;53.712;9.680;2023-08-21T02:51:37;10.60;;;8.10;;
7875;SDS011;69649;53.712;9.680;2023-08-21T02:54:03;14.67;;;9.27;;
7875;SDS011;69649;53.712;9.680;2023-08-21T02:56:28;12.33;;;9.00;;
7875;SDS011;69649;53.712;9.680;2023-08-21T02:58:54;11.33;;;8.07;;
7875;SDS011;69649;53.712;9.680;2023-08-21T03:01:20;10.77;;;8.57;;
7875;SDS011;69649;53.712;9.680;2023-08-21T03:03:46;10.03;;;7.50;;
7875;SDS011;69649;53.712;9.680;2023-08-21T03:06:11;9.97;;;7.73;;
7875;SDS011;69649;53.712;9.680;2023-08-21T03:08:37;10.70;;;8.67;;
7875;SDS011;69649;53.712;9.680;2023-08-21T03:11:03;12.83;;;7.50;;
7875;SDS011;69649;53.712;9.680;2023-08-21T03:13:28;9.67;;;7.50;;
7875;SDS011;69649;53.712;9.680;2023-08-21T03:15:54;16.30;;;7.57;;
7875;SDS011;69649;53.712;9.680;2023-08-21T03:18:20;10.10;;;7.87;;
7875;SDS011;69649;53.712;9.680;2023-08-21T03:20:46;10.83;;;8.30;;
7875;SDS011;69649;53.712;9.680;2023-08-21T03:23:12;10.00;;;7.70;;
7875;SDS011;69649;53.712;9.680;2023-08-21T03:25:39;9.10;;;8.17;;
7875;SDS011;69649;53.712;9.680;2023-08-21T03:28:04;11.20;;;8.50;;
7875;SDS011;69649;53.712;9.680;2023-08-21T03:30:30;13.40;;;8.27;;
7875;SDS011;69649;53.712;9.680;2023-08-21T03:32:56;11.97;;;7.77;;
7875;SDS011;69649;53.712;9.680;2023-08-21T03:35:22;9.40;;;7.43;;
7875;SDS011;69649;53.712;9.680;2023-08-21T03:37:48;10.43;;;8.47;;
7875;SDS011;69649;53.712;9.680;2023-08-21T03:40:13;11.83;;;8.00;;
7875;SDS011;69649;53.712;9.680;2023-08-21T03:42:39;11.90;;;7.80;;
7875;SDS011;69649;53.712;9.680;2023-08-21T03:45:05;10.27;;;8.00;;
7875;SDS011;69649;53.712;9.680;2023-08-21T03:47:32;10.93;;;8.27;;
7875;SDS011;69649;53.712;9.680;2023-08-21T03:49:58;8.23;;;7.40;;
7875;SDS011;69649;53.712;9.680;2023-08-21T03:52:24;8.33;;;7.33;;
7875;SDS011;69649;53.712;9.680;2023-08-21T03:54:50;9.30;;;7.10;;
7875;SDS011;69649;53.712;9.680;2023-08-21T03:57:16;9.43;;;7.33;;
7875;SDS011;69649;53.712;9.680;2023-08-21T03:59:42;8.00;;;7.17;;
7875;SDS011;69649;53.712;9.680;2023-08-21T04:02:08;9.07;;;7.77;;
7875;SDS011;69649;53.712;9.680;2023-08-21T04:04:33;9.13;;;8.23;;
7875;SDS011;69649;53.712;9.680;2023-08-21T04:06:59;13.37;;;8.03;;
7875;SDS011;69649;53.712;9.680;2023-08-21T04:09:25;10.17;;;7.90;;
7875;SDS011;69649;53.712;9.680;2023-08-21T04:11:50;10.57;;;7.97;;
7875;SDS011;69649;53.712;9.680;2023-08-21T04:14:16;11.30;;;6.80;;
7875;SDS011;69649;53.712;9.680;2023-08-21T04:16:42;12.47;;;7.47;;
7875;SDS011;69649;53.712;9.680;2023-08-21T04:19:08;8.70;;;7.73;;
7875;SDS011;69649;53.712;9.680;2023-08-21T04:21:34;8.27;;;7.40;;
7875;SDS011;69649;53.712;9.680;2023-08-21T04:23:59;9.67;;;7.40;;
7875;SDS011;69649;53.712;9.680;2023-08-21T04:26:25;11.87;;;8.07;;
7875;SDS011;69649;53.712;9.680;2023-08-21T04:28:51;12.60;;;7.07;;
7875;SDS011;69649;53.712;9.680;2023-08-21T04:31:17;9.20;;;7.93;;
7875;SDS011;69649;53.712;9.680;2023-08-21T04:33:42;8.97;;;7.30;;
7875;SDS011;69649;53.712;9.680;2023-08-21T04:36:13;8.70;;;7.27;;
7875;SDS011;69649;53.712;9.680;2023-08-21T04:38:42;10.83;;;7.43;;
7875;SDS011;69649;53.712;9.680;2023-08-21T04:41:09;8.20;;;6.77;;
7875;SDS011;69649;53.712;9.680;2023-08-21T04:43:35;10.30;;;7.53;;
7875;SDS011;69649;53.712;9.680;2023-08-21T04:46:02;7.83;;;6.97;;
7875;SDS011;69649;53.712;9.680;2023-08-21T04:48:27;7.43;;;6.40;;
7875;SDS011;69649;53.712;9.680;2023-08-21T04:50:53;9.00;;;6.03;;
7875;SDS011;69649;53.712;9.680;2023-08-21T04:53:19;7.27;;;5.80;;
7875;SDS011;69649;53.712;9.680;2023-08-21T04:55:45;8.10;;;6.10;;
7875;SDS011;69649;53.712;9.680;2023-08-21T04:58:11;8.67;;;6.10;;
7875;SDS011;69649;53.712;9.680;2023-08-21T05:00:37;7.50;;;6.17;;
7875;SDS011;69649;53.712;9.680;2023-08-21T05:03:03;7.33;;;6.40;;
7875;SDS011;69649;53.712;9.680;2023-08-21T05:05:29;10.67;;;6.70;;
7875;SDS011;69649;53.712;9.680;2023-08-21T05:07:55;12.33;;;8.00;;
7875;SDS011;69649;53.712;9.680;2023-08-21T05:10:20;9.20;;;6.57;;
7875;SDS011;69649;53.712;9.680;2023-08-21T05:12:46;10.83;;;6.77;;
7875;SDS011;69649;53.712;9.680;2023-08-21T05:15:12;9.83;;;7.13;;
7875;SDS011;69649;53.712;9.680;2023-08-21T05:17:38;7.93;;;5.87;;
7875;SDS011;69649;53.712;9.680;2023-08-21T05:20:04;10.50;;;7.67;;
7875;SDS011;69649;53.712;9.680;2023-08-21T05:22:30;8.80;;;6.87;;
7875;SDS011;69649;53.712;9.680;2023-08-21T05:24:56;12.70;;;8.27;;
7875;SDS011;69649;53.712;9.680;2023-08-21T05:27:22;11.87;;;7.03;;
7875;SDS011;69649;53.712;9.680;2023-08-21T05:29:47;14.30;;;8.10;;
7875;SDS011;69649;53.712;9.680;2023-08-21T05:32:15;13.57;;;7.67;;
7875;SDS011;69649;53.712;9.680;2023-08-21T05:34:41;11.43;;;7.70;;
7875;SDS011;69649;53.712;9.680;2023-08-21T05:37:06;11.77;;;8.07;;
7875;SDS011;69649;53.712;9.680;2023-08-21T05:39:32;18.83;;;7.57;;
7875;SDS011;69649;53.712;9.680;2023-08-21T05:41:59;12.87;;;7.77;;
7875;SDS011;69649;53.712;9.680;2023-08-21T05:44:25;16.77;;;8.27;;
7875;SDS011;69649;53.712;9.680;2023-08-21T05:46:50;16.97;;;8.37;;
7875;SDS011;69649;53.712;9.680;2023-08-21T05:49:16;16.20;;;9.47;;
7875;SDS011;69649;53.712;9.680;2023-08-21T05:51:42;14.57;;;8.90;;
7875;SDS011;69649;53.712;9.680;2023-08-21T05:54:08;18.13;;;8.93;;
7875;SDS011;69649;53.712;9.680;2023-08-21T05:56:33;14.13;;;9.47;;
7875;SDS011;69649;53.712;9.680;2023-08-21T05:58:59;18.47;;;9.93;;
7875;SDS011;69649;53.712;9.680;2023-08-21T06:01:25;13.50;;;7.93;;
7875;SDS011;69649;53.712;9.680;2023-08-21T06:03:50;14.33;;;8.93;;
7875;SDS011;69649;53.712;9.680;2023-08-21T06:06:16;13.23;;;7.53;;
7875;SDS011;69649;53.712;9.680;2023-08-21T06:08:42;18.83;;;9.93;;
7875;SDS011;69649;53.712;9.680;2023-08-21T06:11:08;19.63;;;8.90;;
7875;SDS011;69649;53.712;9.680;2023-08-21T06:13:34;16.57;;;9.27;;
7875;SDS011;69649;53.712;9.680;2023-08-21T06:16:00;13.63;;;8.90;;
7875;SDS011;69649;53.712;9.680;2023-08-21T06:18:26;14.10;;;9.07;;
7875;SDS011;69649;53.712;9.680;2023-08-21T06:20:52;12.77;;;7.70;;
7875;SDS011;69649;53.712;9.680;2023-08-21T06:23:19;16.50;;;8.40;;
7875;SDS011;69649;53.712;9.680;2023-08-21T06:25:49;14.73;;;7.37;;
7875;SDS011;69649;53.712;9.680;2023-08-21T06:28:15;16.67;;;7.77;;
7875;SDS011;69649;53.712;9.680;2023-08-21T06:30:42;14.97;;;7.77;;
7875;SDS011;69649;53.712;9.680;2023-08-21T06:33:08;19.83;;;9.07;;
7875;SDS011;69649;53.712;9.680;2023-08-21T06:35:36;15.40;;;8.23;;
7875;SDS011;69649;53.712;9.680;2023-08-21T06:38:02;14.30;;;7.03;;
7875;SDS011;69649;53.712;9.680;2023-08-21T06:40:28;12.53;;;6.83;;
7875;SDS011;69649;53.712;9.680;2023-08-21T06:42:54;11.00;;;6.77;;
7875;SDS011;69649;53.712;9.680;2023-08-21T06:45:20;15.00;;;6.07;;
7875;SDS011;69649;53.712;9.680;2023-08-21T06:47:45;12.00;;;5.47;;
7875;SDS011;69649;53.712;9.680;2023-08-21T06:50:11;14.13;;;5.67;;
7875;SDS011;69649;53.712;9.680;2023-08-21T06:52:37;10.47;;;4.90;;
7875;SDS011;69649;53.712;9.680;2023-08-21T06:55:03;10.40;;;4.80;;
7875;SDS011;69649;53.712;9.680;2023-08-21T06:57:29;12.00;;;4.60;;
7875;SDS011;69649;53.712;9.680;2023-08-21T06:59:55;9.07;;;4.70;;
7875;SDS011;69649;53.712;9.680;2023-08-21T07:02:21;6.30;;;3.60;;
7875;SDS011;69649;53.712;9.680;2023-08-21T07:04:47;8.60;;;4.37;;
7875;SDS011;69649;53.712;9.680;2023-08-21T07:07:13;10.07;;;2.77;;
7875;SDS011;69649;53.712;9.680;2023-08-21T07:09:38;12.57;;;4.93;;
7875;SDS011;69649;53.712;9.680;2023-08-21T07:12:05;7.60;;;3.27;;
7875;SDS011;69649;53.712;9.680;2023-08-21T07:14:31;10.90;;;3.67;;
7875;SDS011;69649;53.712;9.680;2023-08-21T07:16:57;9.73;;;3.00;;
7875;SDS011;69649;53.712;9.680;2023-08-21T07:19:23;8.87;;;3.73;;
7875;SDS011;69649;53.712;9.680;2023-08-21T07:21:49;10.87;;;4.60;;
7875;SDS011;69649;53.712;9.680;2023-08-21T07:24:15;9.57;;;2.83;;
7875;SDS011;69649;53.712;9.680;2023-08-21T07:26:40;6.13;;;3.17;;
7875;SDS011;69649;53.712;9.680;2023-08-21T07:29:06;7.70;;;3.33;;
7875;SDS011;69649;53.712;9.680;2023-08-21T07:31:33;7.73;;;2.93;;
7875;SDS011;69649;53.712;9.680;2023-08-21T07:33:59;6.03;;;2.77;;
7875;SDS011;69649;53.712;9.680;2023-08-21T07:36:25;12.00;;;2.93;;
7875;SDS011;69649;53.712;9.680;2023-08-21T07:38:50;7.37;;;3.63;;
7875;SDS011;69649;53.712;9.680;2023-08-21T07:41:16;9.27;;;2.50;;
7875;SDS011;69649;53.712;9.680;2023-08-21T07:43:42;6.23;;;2.10;;
7875;SDS011;69649;53.712;9.680;2023-08-21T07:46:10;4.77;;;2.33;;
7875;SDS011;69649;53.712;9.680;2023-08-21T07:48:39;7.80;;;2.30;;
7875;SDS011;69649;53.712;9.680;2023-08-21T07:51:05;5.57;;;2.10;;
7875;SDS011;69649;53.712;9.680;2023-08-21T07:53:31;5.73;;;2.77;;
7875;SDS011;69649;53.712;9.680;2023-08-21T07:55:58;6.13;;;2.73;;
7875;SDS011;69649;53.712;9.680;2023-08-21T07:58:24;6.57;;;2.37;;
7875;SDS011;69649;53.712;9.680;2023-08-21T08:00:50;4.77;;;2.50;;
7875;SDS011;69649;53.712;9.680;2023-08-21T08:03:16;8.43;;;2.30;;
7875;SDS011;69649;53.712;9.680;2023-08-21T08:05:41;4.57;;;3.07;;
7875;SDS011;69649;53.712;9.680;2023-08-21T08:08:08;7.03;;;2.03;;
7875;SDS011;69649;53.712;9.680;2023-08-21T08:10:40;8.20;;;3.10;;
7875;SDS011;69649;53.712;9.680;2023-08-21T08:13:07;7.10;;;2.37;;
7875;SDS011;69649;53.712;9.680;2023-08-21T08:15:33;8.23;;;2.60;;
7875;SDS011;69649;53.712;9.680;2023-08-21T08:18:00;5.80;;;2.33;;
7875;SDS011;69649;53.712;9.680;2023-08-21T08:20:27;7.77;;;2.07;;
7875;SDS011;69649;53.712;9.680;2023-08-21T08:22:53;6.73;;;2.20;;
7875;SDS011;69649;53.712;9.680;2023-08-21T08:25:19;6.83;;;2.73;;
7875;SDS011;69649;53.712;9.680;2023-08-21T08:27:45;8.17;;;3.37;;
7875;SDS011;69649;53.712;9.680;2023-08-21T08:30:11;4.53;;;1.90;;
7875;SDS011;69649;53.712;9.680;2023-08-21T08:32:39;5.07;;;2.33;;
7875;SDS011;69649;53.712;9.680;2023-08-21T08:35:09;5.93;;;2.40;;
7875;SDS011;69649;53.712;9.680;2023-08-21T08:37:35;3.93;;;2.33;;
7875;SDS011;69649;53.712;9.680;2023-08-21T08:40:01;8.47;;;2.57;;
7875;SDS011;69649;53.712;9.680;2023-08-21T08:42:28;4.10;;;1.97;;
7875;SDS011;69649;53.712;9.680;2023-08-21T08:44:53;4.60;;;2.23;;
7875;SDS011;69649;53.712;9.680;2023-08-21T08:47:21;6.97;;;1.83;;
7875;SDS011;69649;53.712;9.680;2023-08-21T08:49:49;5.30;;;2.10;;
7875;SDS011;69649;53.712;9.680;2023-08-21T08:52:16;5.73;;;2.00;;
7875;SDS011;69649;53.712;9.680;2023-08-21T08:54:44;3.33;;;3.00;;
7875;SDS011;69649;53.712;9.680;2023-08-21T08:57:10;3.83;;;1.80;;
7875;SDS011;69649;53.712;9.680;2023-08-21T08:59:36;5.33;;;2.00;;
7875;SDS011;69649;53.712;9.680;2023-08-21T09:02:02;3.57;;;1.97;;
7875;SDS011;69649;53.712;9.680;2023-08-21T09:04:28;4.27;;;2.30;;
7875;SDS011;69649;53.712;9.680;2023-08-21T09:07:07;5.83;;;2.40;;
7875;SDS011;69649;53.712;9.680;2023-08-21T09:09:40;4.60;;;1.53;;
7875;SDS011;69649;53.712;9.680;2023-08-21T09:12:10;3.23;;;1.60;;
7875;SDS011;69649;53.712;9.680;2023-08-21T09:14:42;6.30;;;2.33;;
7875;SDS011;69649;53.712;9.680;2023-08-21T09:17:07;3.17;;;1.60;;
7875;SDS011;69649;53.712;9.680;2023-08-21T09:19:33;5.50;;;2.53;;
7875;SDS011;69649;53.712;9.680;2023-08-21T09:24:38;5.57;;;2.40;;
7875;SDS011;69649;53.712;9.680;2023-08-21T09:27:17;5.93;;;2.00;;
7875;SDS011;69649;53.712;9.680;2023-08-21T09:29:44;5.13;;;2.20;;
7875;SDS011;69649;53.712;9.680;2023-08-21T09:32:11;5.03;;;2.00;;
7875;SDS011;69649;53.712;9.680;2023-08-21T09:34:37;4.37;;;3.30;;
7875;SDS011;69649;53.712;9.680;2023-08-21T09:37:04;7.53;;;2.30;;
7875;SDS011;69649;53.712;9.680;2023-08-21T09:39:33;4.77;;;3.00;;
7875;SDS011;69649;53.712;9.680;2023-08-21T09:41:59;5.27;;;2.60;;
7875;SDS011;69649;53.712;9.680;2023-08-21T09:44:26;4.63;;;2.70;;
7875;SDS011;69649;53.712;9.680;2023-08-21T09:46:52;7.37;;;2.40;;
7875;SDS011;69649;53.712;9.680;2023-08-21T09:49:18;5.90;;;2.47;;
7875;SDS011;69649;53.712;9.680;2023-08-21T09:51:46;3.90;;;2.87;;
7875;SDS011;69649;53.712;9.680;2023-08-21T09:54:12;7.10;;;2.70;;
7875;SDS011;69649;53.712;9.680;2023-08-21T09:56:40;4.13;;;2.37;;
7875;SDS011;69649;53.712;9.680;2023-08-21T09:59:06;6.13;;;3.23;;
7875;SDS011;69649;53.712;9.680;2023-08-21T10:01:33;3.47;;;2.13;;
7875;SDS011;69649;53.712;9.680;2023-08-21T10:04:02;5.00;;;2.57;;
7875;SDS011;69649;53.712;9.680;2023-08-21T10:06:29;4.20;;;2.17;;
7875;SDS011;69649;53.712;9.680;2023-08-21T10:08:55;4.87;;;2.70;;
7875;SDS011;69649;53.712;9.680;2023-08-21T10:11:22;4.97;;;1.90;;
7875;SDS011;69649;53.712;9.680;2023-08-21T10:13:49;3.67;;;2.10;;
7875;SDS011;69649;53.712;9.680;2023-08-21T10:16:17;5.70;;;1.90;;
7875;SDS011;69649;53.712;9.680;2023-08-21T10:18:44;4.10;;;2.73;;
7875;SDS011;69649;53.712;9.680;2023-08-21T10:21:34;4.57;;;1.67;;
7875;SDS011;69649;53.712;9.680;2023-08-21T10:24:02;5.53;;;2.27;;
7875;SDS011;69649;53.712;9.680;2023-08-21T10:26:29;5.30;;;2.37;;
7875;SDS011;69649;53.712;9.680;2023-08-21T10:28:55;3.80;;;1.97;;
7875;SDS011;69649;53.712;9.680;2023-08-21T10:31:40;6.73;;;2.10;;
7875;SDS011;69649;53.712;9.680;2023-08-21T10:39:23;5.40;;;1.90;;
7875;SDS011;69649;53.712;9.680;2023-08-21T10:47:13;3.13;;;1.70;;
7875;SDS011;69649;53.712;9.680;2023-08-21T10:49:52;1.90;;;1.03;;
7875;SDS011;69649;53.712;9.680;2023-08-21T10:52:14;2.50;;;1.50;;
7875;SDS011;69649;53.712;9.680;2023-08-21T10:54:43;3.53;;;1.73;;
7875;SDS011;69649;53.712;9.680;2023-08-21T10:57:14;7.35;;;1.70;;
7875;SDS011;69649;53.712;9.680;2023-08-21T10:59:56;6.03;;;1.95;;
7875;SDS011;69649;53.712;9.680;2023-08-21T11:05:24;3.30;;;1.90;;
7875;SDS011;69649;53.712;9.680;2023-08-21T11:07:49;3.83;;;1.73;;
7875;SDS011;69649;53.712;9.680;2023-08-21T11:10:17;3.00;;;1.17;;
7875;SDS011;69649;53.712;9.680;2023-08-21T11:12:49;2.43;;;1.57;;
7875;SDS011;69649;53.712;9.680;2023-08-21T11:15:17;5.37;;;1.50;;
7875;SDS011;69649;53.712;9.680;2023-08-21T11:17:50;3.90;;;2.17;;
7875;SDS011;69649;53.712;9.680;2023-08-21T11:20:18;3.05;;;2.72;;
7875;SDS011;69649;53.712;9.680;2023-08-21T11:22:44;3.02;;;2.37;;
7875;SDS011;69649;53.712;9.680;2023-08-21T11:25:10;3.93;;;2.00;;
7875;SDS011;69649;53.712;9.680;2023-08-21T11:27:37;2.45;;;1.80;;
7875;SDS011;69649;53.712;9.680;2023-08-21T11:30:03;3.73;;;2.20;;
7875;SDS011;69649;53.712;9.680;2023-08-21T11:32:30;2.47;;;2.22;;
7875;SDS011;69649;53.712;9.680;2023-08-21T11:34:56;2.45;;;2.30;;
7875;SDS011;69649;53.712;9.680;2023-08-21T11:37:23;4.90;;;1.70;;
7875;SDS011;69649;53.712;9.680;2023-08-21T11:39:51;2.57;;;1.97;;
7875;SDS011;69649;53.712;9.680;2023-08-21T11:42:19;2.72;;;1.55;;
7875;SDS011;69649;53.712;9.680;2023-08-21T11:44:50;2.67;;;2.23;;
7875;SDS011;69649;53.712;9.680;2023-08-21T11:47:16;2.47;;;1.77;;
7875;SDS011;69649;53.712;9.680;2023-08-21T11:49:44;3.63;;;2.23;;
7875;SDS011;69649;53.712;9.680;2023-08-21T11:52:18;3.27;;;2.50;;
7875;SDS011;69649;53.712;9.680;2023-08-21T11:54:49;2.77;;;2.10;;
7875;SDS011;69649;53.712;9.680;2023-08-21T11:57:16;1.75;;;1.42;;
7875;SDS011;69649;53.712;9.680;2023-08-21T11:59:42;2.92;;;1.72;;
7875;SDS011;69649;53.712;9.680;2023-08-21T12:02:17;2.12;;;1.80;;
7875;SDS011;69649;53.712;9.680;2023-08-21T12:04:44;3.70;;;2.17;;
7875;SDS011;69649;53.712;9.680;2023-08-21T12:07:10;4.83;;;2.33;;
7875;SDS011;69649;53.712;9.680;2023-08-21T12:09:37;2.83;;;1.97;;
7875;SDS011;69649;53.712;9.680;2023-08-21T12:12:03;3.40;;;2.20;;
7875;SDS011;69649;53.712;9.680;2023-08-21T12:14:30;1.50;;;1.40;;
7875;SDS011;69649;53.712;9.680;2023-08-21T12:16:55;2.00;;;1.80;;
7875;SDS011;69649;53.712;9.680;2023-08-21T12:19:22;2.87;;;1.70;;
7875;SDS011;69649;53.712;9.680;2023-08-21T12:21:48;1.98;;;1.77;;
7875;SDS011;69649;53.712;9.680;2023-08-21T12:24:15;3.80;;;2.15;;
7875;SDS011;69649;53.712;9.680;2023-08-21T12:26:41;4.33;;;1.32;;
7875;SDS011;69649;53.712;9.680;2023-08-21T12:29:06;2.98;;;1.92;;
7875;SDS011;69649;53.712;9.680;2023-08-21T12:31:32;2.47;;;1.65;;
7875;SDS011;69649;53.712;9.680;2023-08-21T12:33:58;4.67;;;2.67;;
7875;SDS011;69649;53.712;9.680;2023-08-21T12:36:25;1.50;;;1.40;;
7875;SDS011;69649;53.712;9.680;2023-08-21T12:38:50;3.12;;;1.72;;
7875;SDS011;69649;53.712;9.680;2023-08-21T12:41:16;2.77;;;1.50;;
7875;SDS011;69649;53.712;9.680;2023-08-21T12:43:42;2.47;;;1.92;;
7875;SDS011;69649;53.712;9.680;2023-08-21T12:46:07;1.95;;;1.80;;
7875;SDS011;69649;53.712;9.680;2023-08-21T12:48:33;3.90;;;1.87;;
7875;SDS011;69649;53.712;9.680;2023-08-21T12:50:59;1.97;;;1.80;;
7875;SDS011;69649;53.712;9.680;2023-08-21T12:53:25;4.75;;;1.95;;
7875;SDS011;69649;53.712;9.680;2023-08-21T12:55:50;4.62;;;1.72;;
7875;SDS011;69649;53.712;9.680;2023-08-21T12:58:16;2.80;;;1.60;;
7875;SDS011;69649;53.712;9.680;2023-08-21T13:00:43;2.05;;;1.85;;
7875;SDS011;69649;53.712;9.680;2023-08-21T13:03:09;2.75;;;2.10;;
7875;SDS011;69649;53.712;9.680;2023-08-21T13:05:35;2.85;;;1.60;;
7875;SDS011;69649;53.712;9.680;2023-08-21T13:08:01;2.47;;;2.03;;
7875;SDS011;69649;53.712;9.680;2023-08-21T13:10:27;2.67;;;1.42;;
7875;SDS011;69649;53.712;9.680;2023-08-21T13:12:53;4.12;;;1.95;;
7875;SDS011;69649;53.712;9.680;2023-08-21T13:15:18;4.42;;;2.15;;
7875;SDS011;69649;53.712;9.680;2023-08-21T13:17:44;3.77;;;1.37;;
7875;SDS011;69649;53.712;9.680;2023-08-21T13:20:11;5.12;;;1.85;;
7875;SDS011;69649;53.712;9.680;2023-08-21T13:22:47;2.80;;;1.45;;
7875;SDS011;69649;53.712;9.680;2023-08-21T13:25:21;5.05;;;2.08;;
7875;SDS011;69649;53.712;9.680;2023-08-21T13:27:50;2.05;;;1.37;;
7875;SDS011;69649;53.712;9.680;2023-08-21T13:30:17;2.87;;;1.42;;
7875;SDS011;69649;53.712;9.680;2023-08-21T13:32:43;2.70;;;1.22;;
7875;SDS011;69649;53.712;9.680;2023-08-21T13:35:09;2.05;;;1.17;;
7875;SDS011;69649;53.712;9.680;2023-08-21T13:37:36;1.37;;;1.05;;
7875;SDS011;69649;53.712;9.680;2023-08-21T13:40:02;3.12;;;1.32;;
7875;SDS011;69649;53.712;9.680;2023-08-21T13:42:39;3.17;;;1.25;;
7875;SDS011;69649;53.712;9.680;2023-08-21T13:45:09;1.40;;;1.30;;
7875;SDS011;69649;53.712;9.680;2023-08-21T13:47:42;2.35;;;1.25;;
7875;SDS011;69649;53.712;9.680;2023-08-21T13:50:15;2.72;;;1.52;;
7875;SDS011;69649;53.712;9.680;2023-08-21T13:52:43;2.45;;;1.27;;
7875;SDS011;69649;53.712;9.680;2023-08-21T13:55:09;2.15;;;1.20;;
7875;SDS011;69649;53.712;9.680;2023-08-21T13:57:36;2.12;;;1.60;;
7875;SDS011;69649;53.712;9.680;2023-08-21T14:00:03;4.10;;;1.55;;
7875;SDS011;69649;53.712;9.680;2023-08-21T14:02:37;2.80;;;1.45;;
7875;SDS011;69649;53.712;9.680;2023-08-21T14:05:00;2.20;;;1.27;;
7875;SDS011;69649;53.712;9.680;2023-08-21T14:07:26;2.85;;;1.42;;
7875;SDS011;69649;53.712;9.680;2023-08-21T14:09:52;2.52;;;1.12;;
7875;SDS011;69649;53.712;9.680;2023-08-21T14:12:18;2.00;;;1.30;;
7875;SDS011;69649;53.712;9.680;2023-08-21T14:14:44;2.70;;;1.95;;
7875;SDS011;69649;53.712;9.680;2023-08-21T14:17:10;3.35;;;1.60;;
7875;SDS011;69649;53.712;9.680;2023-08-21T14:19:36;1.62;;;1.25;;
7875;SDS011;69649;53.712;9.680;2023-08-21T14:22:02;2.20;;;1.50;;
7875;SDS011;69649;53.712;9.680;2023-08-21T14:24:28;1.25;;;0.90;;
7875;SDS011;69649;53.712;9.680;2023-08-21T14:26:54;2.75;;;1.02;;
7875;SDS011;69649;53.712;9.680;2023-08-21T14:29:20;2.58;;;1.55;;
7875;SDS011;69649;53.712;9.680;2023-08-21T14:31:46;2.25;;;1.55;;
7875;SDS011;69649;53.712;9.680;2023-08-21T14:34:12;2.80;;;1.40;;
7875;SDS011;69649;53.712;9.680;2023-08-21T14:36:39;2.08;;;1.10;;
7875;SDS011;69649;53.712;9.680;2023-08-21T14:39:05;3.15;;;1.45;;
7875;SDS011;69649;53.712;9.680;2023-08-21T14:41:31;2.60;;;1.30;;
7875;SDS011;69649;53.712;9.680;2023-08-21T14:43:57;3.47;;;1.50;;
7875;SDS011;69649;53.712;9.680;2023-08-21T14:46:23;2.10;;;1.20;;
7875;SDS011;69649;53.712;9.680;2023-08-21T14:48:49;2.05;;;1.02;;
7875;SDS011;69649;53.712;9.680;2023-08-21T14:51:14;3.08;;;1.42;;
7875;SDS011;69649;53.712;9.680;2023-08-21T14:53:40;1.95;;;1.10;;
7875;SDS011;69649;53.712;9.680;2023-08-21T14:56:06;3.52;;;1.40;;
7875;SDS011;69649;53.712;9.680;2023-08-21T14:58:31;2.45;;;1.20;;
7875;SDS011;69649;53.712;9.680;2023-08-21T15:00:57;2.55;;;1.30;;
7875;SDS011;69649;53.712;9.680;2023-08-21T15:03:23;2.10;;;0.90;;
7875;SDS011;69649;53.712;9.680;2023-08-21T15:05:49;3.35;;;1.27;;
7875;SDS011;69649;53.712;9.680;2023-08-21T15:08:16;2.52;;;1.20;;
7875;SDS011;69649;53.712;9.680;2023-08-21T15:10:41;2.55;;;1.20;;
7875;SDS011;69649;53.712;9.680;2023-08-21T15:13:07;1.98;;;1.27;;
7875;SDS011;69649;53.712;9.680;2023-08-21T15:15:33;2.62;;;1.70;;
7875;SDS011;69649;53.712;9.680;2023-08-21T15:17:59;1.92;;;1.82;;